ADDS METAR Data INFO
IDs: Format: Raw Decoded Include TAF

Data at: 0609 UTC 25 Jun 2018

KLFK 250553Z AUTO 16009KT 10SM CLR 26/23 A2995 RMK AO2 SLP137 T02560233 10317 20256 403560244 50005 TSNO
KLFK 250453Z AUTO 14008KT 10SM CLR 26/23 A2996 RMK AO2 SLP141 T02610233 TSNO
KLFK 250353Z AUTO 14006KT 10SM CLR 27/24 A2995 RMK AO2 SLP137 T02720239 TSNO
KLFK 250253Z AUTO 15008KT 10SM CLR 28/23 A2994 RMK AO2 SLP132 T02780233 53013 TSNO
KLFK 250153Z AUTO 15008KT 10SM CLR 29/23 A2992 RMK AO2 SLP128 T02940228 TSNO
KLFK 250053Z AUTO 16010KT 10SM CLR 31/23 A2990 RMK AO2 SLP122 T03060233 TSNO
KLFK 242353Z AUTO 16014G23KT 10SM CLR 32/23 A2990 RMK AO2 SLP119 T03220233 10356 20322 51004 TSNO
KLFK 242253Z AUTO 19014G22KT 10SM CLR 34/21 A2989 RMK AO2 SLP117 T03440211 TSNO
KLFK 242153Z AUTO 17011G22KT 10SM FEW055 36/21 A2990 RMK AO2 PK WND 15026/2129 SLP118 T03560211 TSNO
KLFK 242053Z AUTO 18013G21KT 10SM FEW050 35/22 A2989 RMK AO2 SLP115 T03500217 56018 TSNO
KLFK 241953Z AUTO 17014G20KT 10SM SCT046 SCT065 BKN080 34/22 A2990 RMK AO2 SLP118 T03390222 TSNO
KLFK 241853Z AUTO 18009G19KT 10SM FEW070 34/23 A2991 RMK AO2 SLP125 T03440228 TSNO
KLFK 241753Z AUTO 16009G17KT 140V200 10SM BKN045 BKN055 33/23 A2994 RMK AO2 SLP133 T03330228 10339 20244 50007 TSNO
KLFK 241653Z AUTO 20009KT 10SM BKN040 BKN055 32/22 A2994 RMK AO2 SLP135 T03170222 TSNO
KLFK 241553Z AUTO 21009KT 180V240 10SM FEW030 BKN039 31/23 A2993 RMK AO2 SLP131 T03110233 TSNO
KLFK 241453Z AUTO 21011G18KT 10SM SCT022 SCT028 SCT032 29/24 A2992 RMK AO2 SLP126 T02940239 51010 TSNO
KLFK 241444Z AUTO 19013G19KT 10SM FEW021 SCT028 29/24 A2991 RMK AO2 T02890239 TSNO
KLFK 241353Z AUTO 18012KT 10SM SCT014 BKN020 BKN025 28/24 A2992 RMK AO2 SLP126 T02830244 TSNO
KLFK 241304Z AUTO 16007KT 10SM FEW008 BKN018 BKN023 26/24 A2991 RMK AO2 T02610244 TSNO
KLFK 241253Z AUTO 16008KT 10SM FEW016 BKN021 BKN028 26/24 A2990 RMK AO2 SLP121 T02610244 TSNO
KLFK 241218Z AUTO 15007KT 10SM SCT004 BKN020 BKN028 25/24 A2990 RMK AO2 T02500239 TSNO
KLFK 241210Z AUTO 15008KT 10SM BKN004 BKN018 BKN041 25/24 A2989 RMK AO2 CIG 003V010 T02500239 TSNO
KLFK 241153Z AUTO 13006KT 10SM SCT005 BKN027 OVC040 24/24 A2989 RMK AO2 SLP115 T02440239 10261 20244 55006 TSNO
KLFK 241122Z AUTO 14004KT 10SM SCT004 BKN022 24/24 A2989 RMK AO2 T02440239 TSNO
KLFK 241053Z AUTO 15006KT 10SM BKN004 24/24 A2988 RMK AO2 SLP112 T02440239 TSNO
KLFK 241021Z AUTO 15006KT 10SM BKN004 24/24 A2987 RMK AO2 T02440239 TSNO
KLFK 240953Z AUTO 17006KT 10SM SCT007 SCT020 24/24 A2988 RMK AO2 SLP113 T02440239 TSNO
KLFK 240930Z AUTO 16005KT 10SM BKN007 24/24 A2989 RMK AO2 T02440239 TSNO
KLFK 240913Z AUTO 15007KT 10SM SCT009 SCT016 25/24 A2989 RMK AO2 T02500239 TSNO
KLFK 240900Z AUTO 18005KT 10SM BKN009 OVC016 25/24 A2990 RMK AO2 T02500239 TSNO
KLFK 240853Z AUTO 20004KT 10SM SCT009 BKN016 25/24 A2991 RMK AO2 SLP122 T02500239 58002 TSNO
KLFK 240850Z AUTO 20004KT 10SM SCT010 BKN016 25/24 A2991 RMK AO2 TSNO
KLFK 240753Z AUTO 17007KT 10SM CLR 25/24 A2991 RMK AO2 SLP124 T02500239 TSNO
KLFK 240653Z AUTO 18005KT 10SM CLR 26/24 A2991 RMK AO2 SLP124 T02560239 TSNO
KLFK 240635Z AUTO 16007KT 10SM SCT013 26/24 A2990 RMK AO2 T02560239 TSNO
KLFK 240553Z AUTO 17008KT 10SM BKN013 26/24 A2989 RMK AO2 SLP118 T02610239 10328 20261 403560244 53019 TSNO
KLFK 240516Z AUTO 16008KT 10SM BKN014 26/24 A2989 RMK AO2 T02610239 TSNO
KLFK 240453Z AUTO 17008KT 10SM FEW014 26/24 A2988 RMK AO2 SLP112 T02610239 TSNO
KLFK 240353Z AUTO 17010KT 10SM CLR 27/24 A2985 RMK AO2 SLP103 T02720239 TSNO
KLFK 240253Z AUTO 16010KT 10SM CLR 28/24 A2984 RMK AO2 SLP098 T02830239 53012 TSNO
KLFK 240153Z AUTO 17009KT 10SM CLR 29/24 A2982 RMK AO2 SLP092 T02940239 TSNO
KLFK 240053Z AUTO 17009KT 10SM CLR 31/23 A2981 RMK AO2 SLP089 T03110233 TSNO
KLFK 232353Z AUTO 16011G20KT 10SM SCT039 BKN050 33/23 A2980 RMK AO2 SLP086 T03280233 10356 20322 56009 TSNO
KLFK 232253Z AUTO 17009KT 10SM CLR 34/23 A2980 RMK AO2 SLP086 T03390228 TSNO
KLFK 232153Z AUTO 17010KT 10SM FEW055 34/22 A2981 RMK AO2 SLP090 T03440222 TSNO
KLFK 232053Z AUTO 16014G17KT 10SM BKN055 34/21 A2983 RMK AO2 SLP095 T03440211 57025 TSNO
KLFK 231953Z AUTO 15009KT 10SM BKN060 33/22 A2985 RMK AO2 SLP103 T03330217 TSNO
KLFK 231853Z AUTO 15009KT 10SM BKN050 BKN060 33/22 A2988 RMK AO2 SLP113 T03280217 TSNO